4FL8 weather

Schwartz Farms Inc Airport
Sarasota, Florida, United States

Public forecast

Using degrees Fahrenheit for public forecast. Weather courtesy of forecast.io.

Closest aviation weather report (METAR) to Schwartz Farms Inc Airport

Closest report is Sarasota Bradenton International Airport, 13.0 nm (24.1 km) WNW. Retrieved 2020/06/07 05:53 UTC (1 hour ago):

KSRQ 070553Z 13009KT 6SM BR FEW025 BKN050 OVC075 25/24 A2989 RMK AO2 SLP122 P0001 60016 T02500244 10250 20239 58003

Closest aviation forecast (TAF) to Schwartz Farms Inc Airport

Closest forecast is Sarasota Bradenton International Airport, 13.0 nm (24.1 km) WNW. Retrieved 2020/06/07 06:33 UTC (21 minutes ago):

TAF KSRQ 070531Z 0706/0806 13009KT P6SM VCSH SCT020 OVC120 TEMPO 0706/0707 5SM SHRA BKN020 FM071400 16016G25KT P6SM VCTS SCT020CB OVC090 FM080200 14010KT P6SM VCSH SCT020 OVC080